createdAt,value
2019-04-06T00:00:25.567Z,50.70
2019-04-06T00:02:57.234Z,51.11
2019-04-06T00:05:28.785Z,50.88
2019-04-06T00:08:00.364Z,51.67
2019-04-06T00:10:31.963Z,50.74
2019-04-06T00:13:03.542Z,51.05
2019-04-06T00:15:35.084Z,51.17
2019-04-06T00:18:06.629Z,51.57
2019-04-06T00:20:38.186Z,52.27
2019-04-06T00:23:09.703Z,51.88
2019-04-06T00:25:44.668Z,52.56
2019-04-06T00:28:14.462Z,52.60
2019-04-06T00:30:54.914Z,53.17
2019-04-06T00:33:28.029Z,52.44
2019-04-06T00:36:00.551Z,53.17
2019-04-06T00:38:33.871Z,53.34
2019-04-06T00:41:05.490Z,52.41
2019-04-06T00:43:36.986Z,52.96
2019-04-06T00:46:08.473Z,53.29
2019-04-06T00:48:39.956Z,53.86
2019-04-06T00:51:11.531Z,56.38
2019-04-06T00:53:43.040Z,58.85
2019-04-06T00:56:14.550Z,56.07
2019-04-06T00:58:47.234Z,64.89
2019-04-06T01:01:18.781Z,65.65
2019-04-06T01:03:50.337Z,62.19
2019-04-06T01:06:21.885Z,60.26
2019-04-06T01:08:53.317Z,62.10
2019-04-06T01:11:24.838Z,65.73
2019-04-06T01:13:57.362Z,64.20
2019-04-06T01:16:28.919Z,64.26
2019-04-06T01:19:00.459Z,64.14
2019-04-06T01:21:32.999Z,64.85
2019-04-06T01:24:04.706Z,65.47
2019-04-06T01:26:36.207Z,65.57
2019-04-06T01:29:07.715Z,65.48
2019-04-06T01:31:39.147Z,65.59
2019-04-06T01:34:10.648Z,65.50
2019-04-06T01:36:42.248Z,65.86
2019-04-06T01:39:13.960Z,65.06
2019-04-06T01:41:46.519Z,65.61
2019-04-06T01:44:19.536Z,65.91
2019-04-06T01:46:51.148Z,65.76
2019-04-06T01:49:24.183Z,63.04
2019-04-06T01:51:55.715Z,62.30
2019-04-06T01:54:27.366Z,62.63
2019-04-06T01:56:59.006Z,62.47
2019-04-06T01:59:31.716Z,61.17
2019-04-06T02:02:04.836Z,60.03
2019-04-06T02:04:36.364Z,59.89
2019-04-06T02:07:08.170Z,59.68
2019-04-06T02:09:39.692Z,59.54
2019-04-06T02:12:13.279Z,59.44
2019-04-06T02:14:44.851Z,60.02
2019-04-06T02:17:16.410Z,60.85
2019-04-06T02:19:48.918Z,60.48
2019-04-06T02:22:20.736Z,61.09
2019-04-06T02:24:52.237Z,60.83
2019-04-06T02:27:23.762Z,61.21
2019-04-06T02:30:10.342Z,61.30
2019-04-06T02:33:01.258Z,61.02
2019-04-06T02:35:43.786Z,61.49
2019-04-06T02:38:23.139Z,62.26
2019-04-06T02:41:05.662Z,62.46
2019-04-06T02:43:38.878Z,62.42
2019-04-06T02:46:10.461Z,62.84
2019-04-06T02:48:42.051Z,64.24
2019-04-06T02:51:13.578Z,64.95
2019-04-06T02:53:45.075Z,65.57
2019-04-06T02:56:16.613Z,66.32
2019-04-06T02:58:48.209Z,66.40
2019-04-06T03:01:19.960Z,66.32
2019-04-06T03:03:51.496Z,66.57
2019-04-06T03:06:23.130Z,66.49
2019-04-06T03:08:54.655Z,66.06
2019-04-06T03:11:26.157Z,66.17
2019-04-06T03:13:57.874Z,65.03
2019-04-06T03:16:29.483Z,65.78
2019-04-06T03:19:01.055Z,65.80
2019-04-06T03:21:32.691Z,65.55
2019-04-06T03:24:04.735Z,65.94
2019-04-06T03:26:36.481Z,65.90
2019-04-06T03:29:09.069Z,65.99
2019-04-06T03:31:44.887Z,63.86
2019-04-06T03:34:22.485Z,63.73
2019-04-06T03:36:55.581Z,63.49
2019-04-06T03:39:27.116Z,62.41
2019-04-06T03:42:01.898Z,62.11
2019-04-06T03:44:37.435Z,61.05
2019-04-06T03:47:08.891Z,60.52
2019-04-06T03:49:42.465Z,59.38
2019-04-06T03:52:14.045Z,58.64
2019-04-06T03:54:45.862Z,58.22
2019-04-06T03:57:17.662Z,58.22
2019-04-06T03:59:49.727Z,58.05
2019-04-06T04:02:28.367Z,58.21
2019-04-06T04:05:00.662Z,58.57
2019-04-06T04:07:32.140Z,58.94
2019-04-06T04:10:07.315Z,58.81
2019-04-06T04:12:39.091Z,59.00
2019-04-06T04:15:10.770Z,58.78
2019-04-06T04:17:43.422Z,57.99
2019-04-06T04:20:17.023Z,59.12
2019-04-06T04:22:48.760Z,57.67
2019-04-06T04:25:22.537Z,56.02
2019-04-06T04:27:55.105Z,53.30
2019-04-06T04:30:33.113Z,51.60
2019-04-06T04:33:01.062Z,48.61
2019-04-06T04:35:33.807Z,47.53
2019-04-06T04:38:06.334Z,44.46
2019-04-06T04:40:37.857Z,44.31
2019-04-06T04:43:09.417Z,42.90
2019-04-06T04:45:41.519Z,42.05
2019-04-06T04:48:13.480Z,40.47
2019-04-06T04:50:45.041Z,40.39
2019-04-06T04:53:17.578Z,41.59
2019-04-06T04:55:50.166Z,38.17
2019-04-06T04:58:22.092Z,42.21
2019-04-06T05:00:55.147Z,41.72
2019-04-06T05:03:26.712Z,38.60
2019-04-06T05:05:58.213Z,41.11
2019-04-06T05:08:31.296Z,42.39
2019-04-06T05:11:03.131Z,40.45
2019-04-06T05:13:34.638Z,39.33
2019-04-06T05:16:10.912Z,40.22
2019-04-06T05:18:43.672Z,40.33
2019-04-06T05:21:16.682Z,40.84
2019-04-06T05:23:48.192Z,38.69
2019-04-06T05:26:19.721Z,38.35
2019-04-06T05:28:51.345Z,37.64
2019-04-06T05:31:22.919Z,38.25
2019-04-06T05:33:54.425Z,37.31
2019-04-06T05:36:25.935Z,34.57
2019-04-06T05:38:57.483Z,35.19
2019-04-06T05:41:29.019Z,33.91
2019-04-06T05:44:00.548Z,33.39
2019-04-06T05:46:32.056Z,33.60
2019-04-06T05:49:03.568Z,34.41
2019-04-06T05:51:35.097Z,34.16
2019-04-06T05:54:06.596Z,33.56
2019-04-06T05:56:38.211Z,31.46
2019-04-06T05:59:10.323Z,32.02
2019-04-06T06:01:42.617Z,29.20
2019-04-06T06:04:14.252Z,31.33
2019-04-06T06:06:45.763Z,31.31
2019-04-06T06:09:17.266Z,31.48
2019-04-06T06:11:48.777Z,31.12
2019-04-06T06:14:20.850Z,30.38
2019-04-06T06:16:52.445Z,30.59
2019-04-06T06:19:25.169Z,29.16
2019-04-06T06:21:56.680Z,26.49
2019-04-06T06:24:29.707Z,26.94
2019-04-06T06:27:01.267Z,27.61
2019-04-06T06:29:32.892Z,28.68
2019-04-06T06:32:04.894Z,25.02
2019-04-06T06:34:36.754Z,28.29
2019-04-06T06:37:10.621Z,28.73
2019-04-06T06:39:42.259Z,28.42
2019-04-06T06:42:14.086Z,28.05
2019-04-06T06:44:46.236Z,26.92
2019-04-06T06:47:17.801Z,25.14
2019-04-06T06:49:51.516Z,27.02
2019-04-06T06:52:23.044Z,27.23
2019-04-06T06:54:54.586Z,26.90
2019-04-06T06:57:26.133Z,25.77
2019-04-06T06:59:57.653Z,26.15
2019-04-06T07:02:30.256Z,25.95
2019-04-06T07:05:02.099Z,26.32
2019-04-06T07:07:33.618Z,22.76
2019-04-06T07:10:07.836Z,23.32
2019-04-06T07:12:40.400Z,24.98
2019-04-06T07:15:12.099Z,21.72
2019-04-06T07:17:43.701Z,23.33
2019-04-06T07:20:15.362Z,24.94
2019-04-06T07:22:47.886Z,23.97
2019-04-06T07:25:19.674Z,25.00
2019-04-06T07:27:51.179Z,24.45
2019-04-06T07:30:24.064Z,23.95
2019-04-06T07:32:55.855Z,22.20
2019-04-06T07:35:30.315Z,20.24
2019-04-06T07:38:03.531Z,23.14
2019-04-06T07:40:35.183Z,23.63
2019-04-06T07:43:06.707Z,23.60
2019-04-06T07:45:38.250Z,22.86
2019-04-06T07:48:09.746Z,23.43
2019-04-06T07:50:41.502Z,22.90
2019-04-06T07:53:13.208Z,22.90
2019-04-06T07:55:44.914Z,21.87
2019-04-06T07:58:16.745Z,22.36
2019-04-06T08:00:48.318Z,22.97
2019-04-06T08:03:20.012Z,23.62
2019-04-06T08:05:51.508Z,24.43
2019-04-06T08:08:23.079Z,25.76
2019-04-06T08:10:54.742Z,25.30
2019-04-06T08:13:26.316Z,25.27
2019-04-06T08:15:57.966Z,25.67
2019-04-06T08:18:29.699Z,25.65
2019-04-06T08:21:04.559Z,25.74
2019-04-06T08:23:36.234Z,26.16
2019-04-06T08:26:08.917Z,26.88
2019-04-06T08:28:41.441Z,26.66
2019-04-06T08:31:13.043Z,26.38
2019-04-06T08:33:44.619Z,27.11
2019-04-06T08:36:17.224Z,27.27
2019-04-06T08:38:48.766Z,27.43
2019-04-06T08:41:20.464Z,28.06
2019-04-06T08:43:52.042Z,28.19
2019-04-06T08:46:23.759Z,29.09
2019-04-06T08:48:55.235Z,29.17
2019-04-06T08:51:27.042Z,29.09
2019-04-06T08:53:59.591Z,29.34
2019-04-06T08:56:31.030Z,29.38
2019-04-06T08:59:11.615Z,28.95
2019-04-06T09:01:35.810Z,27.76
2019-04-06T09:04:07.400Z,27.29
2019-04-06T09:06:40.064Z,26.73
2019-04-06T09:09:11.612Z,27.43
2019-04-06T09:11:43.224Z,27.32
2019-04-06T09:14:14.776Z,27.30
2019-04-06T09:16:46.705Z,27.85
2019-04-06T09:19:18.328Z,26.94
2019-04-06T09:21:51.831Z,26.96
2019-04-06T09:24:23.552Z,27.04
2019-04-06T09:26:55.334Z,27.22
2019-04-06T09:29:28.187Z,27.09
2019-04-06T09:31:59.761Z,26.67
2019-04-06T09:34:32.197Z,26.76
2019-04-06T09:37:03.921Z,27.06
2019-04-06T09:39:41.206Z,27.24
2019-04-06T09:42:12.970Z,26.51
2019-04-06T09:44:55.211Z,26.67
2019-04-06T09:47:28.936Z,26.60
2019-04-06T09:50:08.291Z,26.63
2019-04-06T09:52:48.910Z,27.05
2019-04-06T09:55:34.167Z,26.94
2019-04-06T09:58:12.601Z,27.47
2019-04-06T10:00:48.925Z,26.89
2019-04-06T10:03:40.875Z,26.92
2019-04-06T10:06:17.082Z,26.54
2019-04-06T10:09:06.340Z,26.24
2019-04-06T10:11:43.985Z,26.22
2019-04-06T10:14:33.536Z,26.47
2019-04-06T10:17:06.733Z,26.38
2019-04-06T10:19:43.284Z,26.59
2019-04-06T10:22:27.015Z,26.73
2019-04-06T10:25:18.994Z,26.71
2019-04-06T10:28:09.236Z,27.12
2019-04-06T10:31:19.103Z,27.22
2019-04-06T10:34:06.200Z,26.88
2019-04-06T10:37:04.905Z,27.04
2019-04-06T10:40:03.810Z,26.93
2019-04-06T10:43:11.389Z,27.10
2019-04-06T10:46:36.058Z,26.79
2019-04-06T10:52:54.703Z,26.74
2019-04-06T10:55:51.021Z,27.01
2019-04-06T10:58:27.877Z,26.65
2019-04-06T11:01:08.061Z,26.48
2019-04-06T11:03:42.341Z,27.20
2019-04-06T11:06:20.141Z,26.92
2019-04-06T11:09:07.041Z,26.80
2019-04-06T11:11:43.465Z,26.95
2019-04-06T11:14:31.720Z,27.00
2019-04-06T11:17:21.859Z,26.92
2019-04-06T11:20:05.601Z,26.76
2019-04-06T11:22:57.130Z,26.22
2019-04-06T11:25:51.836Z,26.41
2019-04-06T11:28:48.867Z,25.99
2019-04-06T11:31:43.280Z,25.89
2019-04-06T11:34:39.887Z,26.36
2019-04-06T11:37:33.753Z,26.04
2019-04-06T11:40:16.266Z,25.57
2019-04-06T11:43:04.014Z,25.77
2019-04-06T11:46:06.430Z,25.36
2019-04-06T11:48:46.188Z,25.19
2019-04-06T11:51:34.450Z,25.61
2019-04-06T11:54:18.902Z,25.35
2019-04-06T11:57:15.408Z,25.66
2019-04-06T12:00:03.681Z,25.65
2019-04-06T12:02:46.294Z,25.67
2019-04-06T12:05:31.826Z,25.81
2019-04-06T12:08:14.947Z,25.52
2019-04-06T12:10:48.448Z,25.29
2019-04-06T12:13:27.969Z,25.40
2019-04-06T12:16:10.380Z,25.66
2019-04-06T12:18:46.177Z,26.27
2019-04-06T12:21:21.856Z,25.42
2019-04-06T12:24:03.822Z,25.72
2019-04-06T12:26:39.982Z,25.55
2019-04-06T12:29:30.927Z,25.07
2019-04-06T12:32:04.014Z,25.66
2019-04-06T12:34:37.223Z,25.76
2019-04-06T12:37:19.486Z,25.57
2019-04-06T12:40:04.637Z,26.19
2019-04-06T12:42:49.661Z,25.12
2019-04-06T12:45:40.756Z,25.43
2019-04-06T12:48:32.172Z,25.20
2019-04-06T12:51:19.454Z,24.94
2019-04-06T12:53:55.361Z,25.35
2019-04-06T12:56:37.769Z,25.50
2019-04-06T12:59:27.076Z,25.66
2019-04-06T13:02:00.270Z,25.73
2019-04-06T13:04:39.702Z,25.78
2019-04-06T13:07:26.877Z,25.74
2019-04-06T13:10:03.139Z,25.24
2019-04-06T13:12:43.470Z,25.34
2019-04-06T13:15:22.604Z,25.42
2019-04-06T13:18:14.155Z,25.64
2019-04-06T13:21:03.564Z,26.78
2019-04-06T13:23:53.051Z,26.05
2019-04-06T13:26:45.380Z,25.52
2019-04-06T13:29:28.222Z,25.80
2019-04-06T13:32:16.744Z,25.44
2019-04-06T13:34:54.679Z,25.96
2019-04-06T13:37:33.916Z,25.93
2019-04-06T13:40:27.376Z,25.78
2019-04-06T13:43:09.612Z,25.76
2019-04-06T13:45:48.541Z,25.90
2019-04-06T13:48:25.545Z,25.95
2019-04-06T13:51:15.175Z,26.40
2019-04-06T13:53:58.270Z,26.63
2019-04-06T13:56:40.778Z,26.78
2019-04-06T13:59:22.978Z,26.86
2019-04-06T14:02:13.252Z,27.25
2019-04-06T14:04:58.589Z,27.17
2019-04-06T14:07:46.012Z,26.47
2019-04-06T14:10:19.013Z,26.18
2019-04-06T14:13:01.248Z,26.13
2019-04-06T14:15:49.679Z,26.58
2019-04-06T14:18:40.888Z,26.95
2019-04-06T14:21:23.143Z,26.84
2019-04-06T14:23:59.260Z,26.77
2019-04-06T14:26:47.503Z,27.07
2019-04-06T14:29:20.594Z,26.87
2019-04-06T14:31:57.071Z,27.15
2019-04-06T14:34:36.562Z,26.33
2019-04-06T14:37:09.734Z,26.39
2019-04-06T14:39:51.779Z,27.12
2019-04-06T14:42:27.737Z,27.41
2019-04-06T14:45:18.861Z,27.81
2019-04-06T14:47:55.808Z,26.52
2019-04-06T14:50:35.201Z,26.61
2019-04-06T14:53:24.945Z,26.47
2019-04-06T14:56:01.040Z,26.91
2019-04-06T14:58:52.583Z,27.20
2019-04-06T15:01:41.183Z,28.05
2019-04-06T15:04:19.546Z,28.72
2019-04-06T15:07:09.422Z,28.04
2019-04-06T15:09:36.846Z,27.86
2019-04-06T15:12:10.368Z,27.69
2019-04-06T15:14:49.414Z,28.00
2019-04-06T15:17:28.947Z,28.11
2019-04-06T15:20:11.315Z,28.94
2019-04-06T15:22:50.447Z,28.64
2019-04-06T15:25:28.893Z,28.42
2019-04-06T15:28:08.207Z,29.42
2019-04-06T15:30:44.060Z,29.29
2019-04-06T15:33:20.140Z,30.61
2019-04-06T15:35:56.298Z,29.59
2019-04-06T15:38:36.543Z,29.99
2019-04-06T15:41:21.666Z,29.05
2019-04-06T15:43:54.794Z,29.68
2019-04-06T15:46:44.643Z,29.65
2019-04-06T15:49:28.350Z,29.73
2019-04-06T15:52:10.154Z,29.30
2019-04-06T15:54:45.296Z,29.45
2019-04-06T15:57:18.462Z,29.54
2019-04-06T15:59:54.625Z,29.62
2019-04-06T16:02:39.998Z,29.90
2019-04-06T16:05:21.559Z,29.85
2019-04-06T16:08:03.326Z,30.09
2019-04-06T16:10:53.060Z,30.41
2019-04-06T16:13:42.581Z,30.84
2019-04-06T16:16:21.427Z,31.31
2019-04-06T16:18:57.553Z,31.29
2019-04-06T16:21:46.645Z,31.76
2019-04-06T16:24:28.730Z,31.63
2019-04-06T16:27:01.893Z,31.92
2019-04-06T16:29:36.047Z,31.85
2019-04-06T16:32:12.170Z,32.25
2019-04-06T16:34:44.923Z,32.30
2019-04-06T16:37:18.085Z,32.51
2019-04-06T16:39:51.231Z,32.71
2019-04-06T16:42:30.611Z,32.93
2019-04-06T16:45:22.873Z,33.15
2019-04-06T16:47:56.973Z,33.38
2019-04-06T16:50:32.729Z,33.72
2019-04-06T16:53:12.495Z,33.82
2019-04-06T16:55:45.806Z,34.17
2019-04-06T16:58:35.528Z,34.63
2019-04-06T17:01:21.034Z,34.67
2019-04-06T17:03:55.639Z,34.61
2019-04-06T17:06:29.542Z,34.92
2019-04-06T17:09:15.745Z,34.79
2019-04-06T17:11:49.890Z,34.92
2019-04-06T17:14:25.992Z,35.15
2019-04-06T17:17:01.780Z,35.44
2019-04-06T17:19:44.106Z,35.35
2019-04-06T17:22:29.345Z,35.16
2019-04-06T17:25:05.433Z,35.51
2019-04-06T17:27:50.577Z,35.72
2019-04-06T17:30:26.975Z,36.05
2019-04-06T17:33:00.428Z,36.82
2019-04-06T17:35:50.516Z,36.53
2019-04-06T17:38:27.029Z,36.85
2019-04-06T17:41:06.478Z,37.02
2019-04-06T17:43:43.027Z,37.11
2019-04-06T17:46:22.467Z,37.65
2019-04-06T17:49:01.334Z,37.77
2019-04-06T17:51:36.678Z,37.68
2019-04-06T17:54:15.698Z,37.92
2019-04-06T17:56:50.315Z,38.25
2019-04-06T17:59:32.480Z,38.23
2019-04-06T18:02:08.986Z,38.07
2019-04-06T18:04:59.076Z,38.21
2019-04-06T18:07:41.542Z,38.39
2019-04-06T18:10:14.662Z,38.17
2019-04-06T18:12:47.744Z,38.61
2019-04-06T18:15:22.840Z,38.85
2019-04-06T18:17:54.416Z,38.91
2019-04-06T18:20:26.104Z,38.87
2019-04-06T18:22:58.152Z,38.94
2019-04-06T18:25:29.748Z,38.98
2019-04-06T18:28:01.587Z,39.39
2019-04-06T18:30:33.242Z,39.43
2019-04-06T18:33:09.437Z,39.50
2019-04-06T18:35:41.051Z,39.38
2019-04-06T18:38:16.848Z,39.07
2019-04-06T18:40:48.361Z,39.13
2019-04-06T18:43:20.858Z,38.85
2019-04-06T18:45:52.350Z,38.41
2019-04-06T18:48:23.888Z,38.63
2019-04-06T18:50:55.455Z,38.84
2019-04-06T18:53:28.019Z,38.64
2019-04-06T18:56:00.894Z,38.37
2019-04-06T18:58:32.493Z,38.50
2019-04-06T19:01:04.594Z,38.01
2019-04-06T19:03:36.795Z,38.23
2019-04-06T19:06:09.521Z,38.40
2019-04-06T19:08:41.024Z,38.36
2019-04-06T19:11:12.668Z,37.92
2019-04-06T19:13:44.365Z,37.79
2019-04-06T19:16:18.015Z,37.88
2019-04-06T19:18:50.086Z,37.79
2019-04-06T19:21:23.236Z,37.80
2019-04-06T19:23:54.997Z,37.95
2019-04-06T19:26:26.567Z,38.09
2019-04-06T19:28:58.187Z,37.92
2019-04-06T19:31:30.710Z,38.21
2019-04-06T19:34:02.333Z,38.42
2019-04-06T19:36:34.061Z,38.31
2019-04-06T19:39:08.637Z,38.89
2019-04-06T19:41:40.687Z,38.75
2019-04-06T19:44:13.265Z,38.89
2019-04-06T19:46:46.053Z,39.10
2019-04-06T19:49:17.869Z,39.19
2019-04-06T19:51:51.533Z,39.32
2019-04-06T19:54:23.214Z,39.64
2019-04-06T19:56:55.159Z,39.47
2019-04-06T19:59:26.773Z,39.46
2019-04-06T20:01:58.691Z,39.39
2019-04-06T20:04:30.808Z,39.61
2019-04-06T20:07:03.683Z,39.81
2019-04-06T20:09:36.592Z,39.65
2019-04-06T20:12:08.167Z,39.56
2019-04-06T20:14:39.724Z,39.98
2019-04-06T20:17:11.228Z,39.89
2019-04-06T20:19:42.892Z,40.24
2019-04-06T20:22:14.875Z,40.30
2019-04-06T20:24:47.619Z,39.88
2019-04-06T20:27:21.272Z,40.38
2019-04-06T20:29:53.504Z,40.02
2019-04-06T20:32:25.601Z,40.00
2019-04-06T20:34:57.402Z,40.07
2019-04-06T20:37:32.382Z,40.15
2019-04-06T20:40:05.284Z,40.05
2019-04-06T20:42:36.950Z,40.12
2019-04-06T20:45:09.221Z,40.31
2019-04-06T20:47:40.888Z,40.33
2019-04-06T20:50:12.385Z,40.24
2019-04-06T20:52:43.983Z,40.29
2019-04-06T20:55:15.495Z,40.52
2019-04-06T20:57:48.326Z,40.79
2019-04-06T21:00:20.797Z,40.61
2019-04-06T21:02:52.250Z,40.93
2019-04-06T21:05:24.230Z,41.11
2019-04-06T21:07:56.413Z,41.48
2019-04-06T21:10:28.242Z,41.67
2019-04-06T21:12:59.907Z,42.33
2019-04-06T21:15:31.924Z,42.17
2019-04-06T21:18:03.458Z,42.92
2019-04-06T21:20:36.868Z,42.90
2019-04-06T21:23:09.645Z,42.50
2019-04-06T21:25:41.748Z,42.20
2019-04-06T21:28:14.488Z,42.21
2019-04-06T21:30:47.873Z,42.68
2019-04-06T21:33:20.095Z,42.81
2019-04-06T21:35:51.592Z,43.09
2019-04-06T21:38:23.107Z,42.60
2019-04-06T21:40:54.673Z,43.31
2019-04-06T21:43:27.790Z,43.79
2019-04-06T21:45:59.292Z,43.50
2019-04-06T21:48:31.318Z,43.19
2019-04-06T21:51:03.936Z,44.85
2019-04-06T21:53:35.872Z,43.90
2019-04-06T21:56:08.294Z,44.44
2019-04-06T21:58:40.444Z,44.70
2019-04-06T22:01:13.970Z,44.79
2019-04-06T22:03:46.210Z,44.38
2019-04-06T22:06:17.439Z,44.18
2019-04-06T22:08:48.999Z,44.21
2019-04-06T22:11:20.523Z,44.76
2019-04-06T22:13:52.195Z,43.72
2019-04-06T22:16:23.698Z,43.63
2019-04-06T22:18:55.251Z,43.84
2019-04-06T22:21:27.115Z,43.29
2019-04-06T22:23:59.118Z,43.90
2019-04-06T22:26:30.720Z,43.18
2019-04-06T22:29:02.717Z,43.11
2019-04-06T22:31:34.347Z,43.10
2019-04-06T22:34:05.875Z,43.19
2019-04-06T22:36:37.424Z,43.24
2019-04-06T22:39:10.067Z,43.19
2019-04-06T22:41:42.048Z,43.51
2019-04-06T22:44:13.686Z,44.23
2019-04-06T22:46:45.143Z,45.77
2019-04-06T22:49:16.694Z,45.75
2019-04-06T22:51:48.337Z,46.42
2019-04-06T22:54:19.862Z,45.47
2019-04-06T22:56:52.043Z,45.37
2019-04-06T22:59:23.651Z,45.22
2019-04-06T23:01:55.146Z,45.00
2019-04-06T23:04:28.714Z,44.80
2019-04-06T23:07:02.071Z,44.69
2019-04-06T23:09:34.603Z,44.71
2019-04-06T23:12:06.432Z,45.05
2019-04-06T23:14:38.338Z,45.01
2019-04-06T23:17:10.246Z,45.15
2019-04-06T23:19:42.017Z,46.82
2019-04-06T23:22:14.136Z,47.95
2019-04-06T23:24:45.871Z,48.55
2019-04-06T23:27:17.377Z,49.44
2019-04-06T23:29:48.898Z,49.49
2019-04-06T23:32:20.536Z,50.10
2019-04-06T23:34:59.458Z,49.73
2019-04-06T23:37:26.267Z,49.86
2019-04-06T23:39:58.448Z,50.18
2019-04-06T23:42:31.899Z,50.18
2019-04-06T23:45:03.582Z,49.97
2019-04-06T23:47:35.187Z,50.26
2019-04-06T23:50:07.650Z,50.68
2019-04-06T23:52:39.875Z,50.53
2019-04-06T23:55:11.944Z,50.29
2019-04-06T23:57:44.567Z,50.01
